SBI2570 UNNT-USNN
Flight info
| Callsign | SBI2570 |
|---|---|
| Flight time | 1h 16m |
| Altitude | 36000 |
| Route | DIMID1J DIMID R484 SOREB T631 PAROM PAROM1T |
| Aircraft | B738/M-SDE2E3FGHIRWXY/LB1 |
Departure
| Time | 2026-04-14 23:52 |
|---|---|
| Airport | Novosibirsk Tolmachevo Airport (UNNT) |
Arrival
| Time | 2026-04-15 01:08 |
|---|---|
| Airport | Nizhnevartovsk Airport (USNN) |
| Time | Latitude | Longitude | Altitude | Speed | Heading |
|---|---|---|---|---|---|
| 2026-04-14 23:27 | 55.01027 | 82.66668 | 372 ft | 0 kts | 170° |
| 2026-04-14 23:37 | 55.01037 | 82.66665 | 372 ft | 2 kts | 169° |
| 2026-04-14 23:37 | 55.01053 | 82.66660 | 372 ft | 2 kts | 170° |
| 2026-04-14 23:37 | 55.01070 | 82.66656 | 372 ft | 2 kts | 185° |
| 2026-04-14 23:38 | 55.01084 | 82.66668 | 372 ft | 2 kts | 235° |
| 2026-04-14 23:38 | 55.01092 | 82.66694 | 372 ft | 2 kts | 251° |
| 2026-04-14 23:38 | 55.01096 | 82.66719 | 372 ft | 1 kts | 259° |
| 2026-04-14 23:38 | 55.01096 | 82.66724 | 372 ft | 0 kts | 260° |
| 2026-04-14 23:43 | 55.01096 | 82.66723 | 372 ft | 0 kts | 260° |
| 2026-04-14 23:43 | 55.01092 | 82.66692 | 372 ft | 7 kts | 256° |
| 2026-04-14 23:43 | 55.01072 | 82.66597 | 372 ft | 10 kts | 247° |
| 2026-04-14 23:43 | 55.01042 | 82.66475 | 372 ft | 12 kts | 248° |
| 2026-04-14 23:44 | 55.01010 | 82.66329 | 372 ft | 14 kts | 249° |
| 2026-04-14 23:44 | 55.00972 | 82.66158 | 372 ft | 16 kts | 247° |
| 2026-04-14 23:44 | 55.00945 | 82.65968 | 372 ft | 16 kts | 261° |
| 2026-04-14 23:44 | 55.00928 | 82.65781 | 372 ft | 15 kts | 261° |
| 2026-04-14 23:45 | 55.00913 | 82.65608 | 372 ft | 15 kts | 261° |
| 2026-04-14 23:45 | 55.00908 | 82.65554 | 372 ft | 15 kts | 261° |
| 2026-04-14 23:45 | 55.00903 | 82.65501 | 372 ft | 14 kts | 261° |
| 2026-04-14 23:45 | 55.00887 | 82.65333 | 372 ft | 14 kts | 260° |
| 2026-04-14 23:46 | 55.00881 | 82.65174 | 372 ft | 13 kts | 265° |
| 2026-04-14 23:46 | 55.00872 | 82.65019 | 372 ft | 13 kts | 271° |
| 2026-04-14 23:46 | 55.00891 | 82.64850 | 372 ft | 16 kts | 283° |
| 2026-04-14 23:46 | 55.00920 | 82.64631 | 372 ft | 21 kts | 283° |
| 2026-04-14 23:47 | 55.00955 | 82.64362 | 372 ft | 24 kts | 283° |
| 2026-04-14 23:47 | 55.00990 | 82.64097 | 372 ft | 18 kts | 283° |
| 2026-04-14 23:47 | 55.01054 | 82.63997 | 373 ft | 13 kts | 352° |
| 2026-04-14 23:47 | 55.01139 | 82.63956 | 374 ft | 13 kts | 321° |
| 2026-04-14 23:48 | 55.01142 | 82.63858 | 374 ft | 13 kts | 253° |
| 2026-04-14 23:49 | 55.01043 | 82.62886 | 371 ft | 28 kts | 261° |
| 2026-04-14 23:49 | 55.01010 | 82.62561 | 373 ft | 22 kts | 253° |
| 2026-04-14 23:49 | 55.00945 | 82.62366 | 374 ft | 14 kts | 265° |
| 2026-04-14 23:49 | 55.00997 | 82.62358 | 374 ft | 11 kts | 71° |
| 2026-04-14 23:50 | 55.01005 | 82.62442 | 374 ft | 0 kts | 82° |
| 2026-04-14 23:51 | 55.01007 | 82.62460 | 374 ft | 13 kts | 81° |
| 2026-04-14 23:51 | 55.01064 | 82.63092 | 370 ft | 91 kts | 81° |
| 2026-04-14 23:51 | 55.01197 | 82.64577 | 372 ft | 155 kts | 82° |
| 2026-04-14 23:51 | 55.01369 | 82.66683 | 674 ft | 187 kts | 81° |
| 2026-04-14 23:52 | 55.01607 | 82.68973 | 1472 ft | 199 kts | 83° |
| 2026-04-14 23:52 | 55.01852 | 82.71418 | 2278 ft | 208 kts | 83° |
| 2026-04-14 23:52 | 55.02101 | 82.74035 | 2670 ft | 233 kts | 83° |
| 2026-04-14 23:52 | 55.02382 | 82.76896 | 3205 ft | 243 kts | 82° |
| 2026-04-14 23:53 | 55.02645 | 82.79834 | 3883 ft | 247 kts | 83° |
| 2026-04-14 23:53 | 55.02893 | 82.82793 | 4675 ft | 247 kts | 82° |
| 2026-04-14 23:53 | 55.03359 | 82.85686 | 5460 ft | 251 kts | 56° |
| 2026-04-14 23:53 | 55.04678 | 82.87694 | 6086 ft | 263 kts | 20° |
| 2026-04-14 23:54 | 55.06452 | 82.88684 | 6794 ft | 272 kts | 13° |
| 2026-04-14 23:54 | 55.08266 | 82.89625 | 7647 ft | 276 kts | 13° |
| 2026-04-14 23:54 | 55.10118 | 82.90606 | 8565 ft | 279 kts | 14° |
| 2026-04-14 23:54 | 55.12019 | 82.91243 | 9444 ft | 278 kts | 353° |
| 2026-04-14 23:55 | 55.13883 | 82.90459 | 10310 ft | 277 kts | 336° |
| 2026-04-14 23:55 | 55.15704 | 82.89247 | 11021 ft | 284 kts | 335° |
| 2026-04-14 23:55 | 55.17551 | 82.87966 | 11847 ft | 287 kts | 335° |
| 2026-04-14 23:55 | 55.19417 | 82.86683 | 12711 ft | 289 kts | 335° |
| 2026-04-14 23:56 | 55.21302 | 82.85408 | 13567 ft | 292 kts | 335° |
| 2026-04-14 23:56 | 55.23215 | 82.84124 | 14341 ft | 295 kts | 335° |
| 2026-04-14 23:56 | 55.25121 | 82.82848 | 15101 ft | 297 kts | 335° |
| 2026-04-14 23:56 | 55.27045 | 82.81493 | 15868 ft | 298 kts | 329° |
| 2026-04-14 23:57 | 55.28741 | 82.79471 | 16697 ft | 294 kts | 318° |
| 2026-04-14 23:57 | 55.30355 | 82.77223 | 17455 ft | 298 kts | 319° |
| 2026-04-14 23:57 | 55.32000 | 82.74980 | 18232 ft | 301 kts | 319° |
| 2026-04-14 23:57 | 55.33671 | 82.72735 | 18892 ft | 303 kts | 319° |
| 2026-04-14 23:58 | 55.35520 | 82.70870 | 19512 ft | 313 kts | 337° |
| 2026-04-14 23:58 | 55.37737 | 82.70144 | 19739 ft | 338 kts | 352° |
| 2026-04-14 23:58 | 55.40161 | 82.70051 | 19900 ft | 358 kts | 354° |
| 2026-04-14 23:58 | 55.42683 | 82.70076 | 20025 ft | 375 kts | 355° |
| 2026-04-14 23:59 | 55.45362 | 82.70135 | 20150 ft | 391 kts | 355° |
| 2026-04-14 23:59 | 55.48117 | 82.70195 | 20457 ft | 400 kts | 355° |
| 2026-04-14 23:59 | 55.50917 | 82.70244 | 20976 ft | 403 kts | 355° |
| 2026-04-14 23:59 | 55.53735 | 82.70277 | 21548 ft | 405 kts | 355° |
| 2026-04-15 00:00 | 55.56565 | 82.70296 | 22080 ft | 408 kts | 355° |
| 2026-04-15 00:00 | 55.59423 | 82.70304 | 22564 ft | 413 kts | 354° |
| 2026-04-15 00:00 | 55.62316 | 82.70305 | 23028 ft | 416 kts | 354° |
| 2026-04-15 00:00 | 55.65221 | 82.70305 | 23520 ft | 419 kts | 354° |
| 2026-04-15 00:01 | 55.68152 | 82.70305 | 23925 ft | 422 kts | 354° |
| 2026-04-15 00:01 | 55.71093 | 82.70305 | 24360 ft | 424 kts | 354° |
| 2026-04-15 00:01 | 55.74061 | 82.70305 | 24643 ft | 429 kts | 354° |
| 2026-04-15 00:01 | 55.77046 | 82.70307 | 25097 ft | 429 kts | 354° |
| 2026-04-15 00:02 | 55.79993 | 82.70309 | 25527 ft | 430 kts | 354° |
| 2026-04-15 00:02 | 55.82994 | 82.70310 | 25877 ft | 433 kts | 354° |
| 2026-04-15 00:02 | 55.84014 | 82.70310 | 26010 ft | 434 kts | 354° |
| 2026-04-15 00:04 | 55.94855 | 82.70315 | 27181 ft | 443 kts | 355° |
| 2026-04-15 00:04 | 55.97954 | 82.70319 | 27505 ft | 446 kts | 355° |
| 2026-04-15 00:04 | 56.01069 | 82.70322 | 27809 ft | 448 kts | 354° |
| 2026-04-15 00:05 | 56.04192 | 82.70321 | 28111 ft | 451 kts | 354° |
| 2026-04-15 00:05 | 56.07317 | 82.70072 | 28395 ft | 447 kts | 345° |
| 2026-04-15 00:05 | 56.10218 | 82.68450 | 28789 ft | 439 kts | 334° |
| 2026-04-15 00:05 | 56.13055 | 82.66414 | 29199 ft | 439 kts | 334° |
| 2026-04-15 00:06 | 56.15898 | 82.64415 | 29608 ft | 439 kts | 334° |
| 2026-04-15 00:06 | 56.18751 | 82.62444 | 30041 ft | 438 kts | 335° |
| 2026-04-15 00:06 | 56.21594 | 82.60503 | 30382 ft | 437 kts | 335° |
| 2026-04-15 00:06 | 56.24443 | 82.58571 | 30690 ft | 437 kts | 335° |
| 2026-04-15 00:07 | 56.27298 | 82.56640 | 30983 ft | 438 kts | 335° |
| 2026-04-15 00:07 | 56.30113 | 82.54736 | 31288 ft | 438 kts | 335° |
| 2026-04-15 00:07 | 56.32963 | 82.52806 | 31618 ft | 437 kts | 335° |
| 2026-04-15 00:07 | 56.35816 | 82.50870 | 31907 ft | 437 kts | 335° |
| 2026-04-15 00:08 | 56.38667 | 82.48932 | 32194 ft | 438 kts | 335° |
| 2026-04-15 00:08 | 56.41518 | 82.46990 | 32502 ft | 437 kts | 335° |
| 2026-04-15 00:08 | 56.44377 | 82.45038 | 32619 ft | 442 kts | 335° |
| 2026-04-15 00:08 | 56.47277 | 82.43054 | 32665 ft | 447 kts | 336° |
| 2026-04-15 00:09 | 56.53117 | 82.39055 | 33121 ft | 446 kts | 336° |
| 2026-04-15 00:09 | 56.56008 | 82.37073 | 33608 ft | 441 kts | 336° |
| 2026-04-15 00:09 | 56.58831 | 82.35133 | 34036 ft | 437 kts | 336° |
| 2026-04-15 00:10 | 56.61669 | 82.33178 | 34380 ft | 435 kts | 336° |
| 2026-04-15 00:10 | 56.64503 | 82.31222 | 34551 ft | 437 kts | 336° |
| 2026-04-15 00:10 | 56.67349 | 82.29252 | 34719 ft | 438 kts | 336° |
| 2026-04-15 00:10 | 56.70195 | 82.27280 | 34981 ft | 437 kts | 336° |
| 2026-04-15 00:11 | 56.73037 | 82.25309 | 35274 ft | 435 kts | 336° |
| 2026-04-15 00:11 | 56.75859 | 82.23350 | 35545 ft | 434 kts | 336° |
| 2026-04-15 00:11 | 56.78683 | 82.21386 | 35764 ft | 434 kts | 336° |
| 2026-04-15 00:11 | 56.81502 | 82.19423 | 35919 ft | 435 kts | 336° |
| 2026-04-15 00:12 | 56.87189 | 82.15453 | 35950 ft | 436 kts | 337° |
| 2026-04-15 00:12 | 56.92823 | 82.11514 | 35919 ft | 432 kts | 337° |
| 2026-04-15 00:13 | 56.98374 | 82.07614 | 35931 ft | 428 kts | 336° |
| 2026-04-15 00:13 | 57.03764 | 82.03068 | 35934 ft | 425 kts | 329° |
| 2026-04-15 00:14 | 57.08873 | 81.97624 | 35927 ft | 424 kts | 328° |
| 2026-04-15 00:14 | 57.13975 | 81.92120 | 35940 ft | 426 kts | 328° |
| 2026-04-15 00:15 | 57.19120 | 81.86638 | 35933 ft | 428 kts | 328° |
| 2026-04-15 00:15 | 57.24310 | 81.81141 | 35928 ft | 430 kts | 328° |
| 2026-04-15 00:16 | 57.29517 | 81.75623 | 35926 ft | 432 kts | 328° |
| 2026-04-15 00:16 | 57.34741 | 81.70070 | 35926 ft | 433 kts | 328° |
| 2026-04-15 00:17 | 57.39938 | 81.64527 | 35934 ft | 434 kts | 328° |
| 2026-04-15 00:17 | 57.45167 | 81.58930 | 35903 ft | 433 kts | 329° |
| 2026-04-15 00:18 | 57.52050 | 81.51533 | 35919 ft | 431 kts | 329° |
| 2026-04-15 00:19 | 57.57235 | 81.45939 | 35923 ft | 430 kts | 328° |
| 2026-04-15 00:19 | 57.62412 | 81.40335 | 35921 ft | 429 kts | 328° |
| 2026-04-15 00:20 | 57.67573 | 81.34730 | 35925 ft | 429 kts | 329° |
| 2026-04-15 00:20 | 57.72726 | 81.29115 | 35919 ft | 428 kts | 328° |
| 2026-04-15 00:21 | 57.77838 | 81.23527 | 35922 ft | 429 kts | 328° |
| 2026-04-15 00:21 | 57.83048 | 81.17811 | 35927 ft | 437 kts | 328° |
| 2026-04-15 00:22 | 57.88324 | 81.12005 | 35919 ft | 442 kts | 328° |
| 2026-04-15 00:22 | 57.93643 | 81.06131 | 35919 ft | 443 kts | 328° |
| 2026-04-15 00:23 | 57.98936 | 81.00266 | 35909 ft | 438 kts | 328° |
| 2026-04-15 00:23 | 58.04167 | 80.94449 | 35913 ft | 434 kts | 328° |
| 2026-04-15 00:24 | 58.09330 | 80.88686 | 35914 ft | 433 kts | 328° |
| 2026-04-15 00:24 | 58.14516 | 80.82880 | 35921 ft | 433 kts | 328° |
| 2026-04-15 00:25 | 58.19692 | 80.77064 | 35928 ft | 432 kts | 328° |
| 2026-04-15 00:25 | 58.24861 | 80.71237 | 35923 ft | 432 kts | 328° |
| 2026-04-15 00:26 | 58.30033 | 80.65386 | 35918 ft | 432 kts | 328° |
| 2026-04-15 00:26 | 58.35210 | 80.59510 | 35921 ft | 433 kts | 328° |
| 2026-04-15 00:27 | 58.40392 | 80.53608 | 35928 ft | 434 kts | 328° |
| 2026-04-15 00:27 | 58.45576 | 80.47683 | 35936 ft | 434 kts | 328° |
| 2026-04-15 00:28 | 58.50762 | 80.41736 | 35933 ft | 434 kts | 328° |
| 2026-04-15 00:28 | 58.55917 | 80.35804 | 35935 ft | 434 kts | 328° |
| 2026-04-15 00:29 | 58.61098 | 80.29822 | 35942 ft | 434 kts | 328° |
| 2026-04-15 00:29 | 58.66268 | 80.23833 | 35943 ft | 434 kts | 328° |
| 2026-04-15 00:30 | 58.71438 | 80.17825 | 35955 ft | 433 kts | 328° |
| 2026-04-15 00:30 | 58.76599 | 80.11811 | 35955 ft | 433 kts | 328° |
| 2026-04-15 00:31 | 58.81744 | 80.05779 | 35959 ft | 432 kts | 328° |
| 2026-04-15 00:31 | 58.86836 | 79.99726 | 35955 ft | 432 kts | 327° |
| 2026-04-15 00:32 | 58.91951 | 79.93617 | 35964 ft | 432 kts | 327° |
| 2026-04-15 00:32 | 58.97070 | 79.87494 | 35964 ft | 432 kts | 327° |
| 2026-04-15 00:33 | 59.02190 | 79.81356 | 35976 ft | 432 kts | 327° |
| 2026-04-15 00:33 | 59.07309 | 79.75199 | 35971 ft | 432 kts | 327° |
| 2026-04-15 00:34 | 59.12379 | 79.69080 | 35989 ft | 432 kts | 327° |
| 2026-04-15 00:34 | 59.17486 | 79.62894 | 35990 ft | 432 kts | 327° |
| 2026-04-15 00:35 | 59.22588 | 79.56692 | 36008 ft | 432 kts | 327° |
| 2026-04-15 00:35 | 59.27695 | 79.50462 | 35999 ft | 432 kts | 327° |
| 2026-04-15 00:36 | 59.32793 | 79.44220 | 36011 ft | 432 kts | 327° |
| 2026-04-15 00:36 | 59.37889 | 79.37958 | 36007 ft | 432 kts | 327° |
| 2026-04-15 00:37 | 59.42981 | 79.31679 | 36025 ft | 432 kts | 327° |
| 2026-04-15 00:37 | 59.48037 | 79.25422 | 36031 ft | 432 kts | 327° |
| 2026-04-15 00:38 | 59.53117 | 79.19112 | 36035 ft | 431 kts | 327° |
| 2026-04-15 00:38 | 59.58187 | 79.12793 | 36031 ft | 431 kts | 327° |
| 2026-04-15 00:39 | 59.63253 | 79.06456 | 36035 ft | 431 kts | 327° |
| 2026-04-15 00:39 | 59.68313 | 79.00102 | 36039 ft | 431 kts | 327° |
| 2026-04-15 00:40 | 59.73368 | 78.93733 | 36055 ft | 431 kts | 327° |
| 2026-04-15 00:40 | 59.78400 | 78.87369 | 36053 ft | 430 kts | 327° |
| 2026-04-15 00:40 | 59.80927 | 78.84164 | 35823 ft | 434 kts | 326° |
| 2026-04-15 00:41 | 59.83474 | 78.80929 | 35259 ft | 434 kts | 326° |
| 2026-04-15 00:41 | 59.86010 | 78.77702 | 34603 ft | 431 kts | 326° |
| 2026-04-15 00:41 | 59.88532 | 78.74489 | 33904 ft | 427 kts | 326° |
| 2026-04-15 00:41 | 59.91024 | 78.71308 | 33073 ft | 423 kts | 326° |
| 2026-04-15 00:42 | 59.93490 | 78.68154 | 32378 ft | 419 kts | 326° |
| 2026-04-15 00:42 | 59.95906 | 78.65058 | 31657 ft | 418 kts | 326° |
| 2026-04-15 00:42 | 59.98346 | 78.61926 | 31134 ft | 413 kts | 326° |
| 2026-04-15 00:42 | 60.00754 | 78.58831 | 30604 ft | 408 kts | 325° |
| 2026-04-15 00:43 | 60.03132 | 78.55767 | 30100 ft | 403 kts | 325° |
| 2026-04-15 00:43 | 60.05472 | 78.52747 | 29501 ft | 397 kts | 325° |
| 2026-04-15 00:43 | 60.07772 | 78.49773 | 28993 ft | 391 kts | 325° |
| 2026-04-15 00:43 | 60.10040 | 78.46835 | 28487 ft | 384 kts | 325° |
| 2026-04-15 00:44 | 60.12270 | 78.43941 | 27991 ft | 378 kts | 325° |
| 2026-04-15 00:44 | 60.14465 | 78.41088 | 27495 ft | 373 kts | 325° |
| 2026-04-15 00:44 | 60.16628 | 78.38273 | 27007 ft | 368 kts | 325° |
| 2026-04-15 00:44 | 60.18765 | 78.35487 | 26515 ft | 364 kts | 325° |
| 2026-04-15 00:45 | 60.20876 | 78.32731 | 26025 ft | 360 kts | 325° |
| 2026-04-15 00:45 | 60.22969 | 78.29995 | 25545 ft | 357 kts | 325° |
| 2026-04-15 00:45 | 60.25038 | 78.27286 | 25108 ft | 353 kts | 325° |
| 2026-04-15 00:45 | 60.27093 | 78.24594 | 24632 ft | 351 kts | 325° |
| 2026-04-15 00:46 | 60.29131 | 78.21921 | 24168 ft | 348 kts | 325° |
| 2026-04-15 00:46 | 60.31125 | 78.19299 | 23715 ft | 345 kts | 325° |
| 2026-04-15 00:46 | 60.33130 | 78.16653 | 23164 ft | 343 kts | 325° |
| 2026-04-15 00:46 | 60.35120 | 78.14026 | 22691 ft | 339 kts | 325° |
| 2026-04-15 00:47 | 60.37083 | 78.11425 | 22229 ft | 335 kts | 325° |
| 2026-04-15 00:47 | 60.39021 | 78.08851 | 21775 ft | 332 kts | 325° |
| 2026-04-15 00:47 | 60.40944 | 78.06294 | 21325 ft | 330 kts | 325° |
| 2026-04-15 00:47 | 60.42862 | 78.03743 | 20866 ft | 329 kts | 325° |
| 2026-04-15 00:48 | 60.44154 | 78.02024 | 20569 ft | 329 kts | 325° |
| 2026-04-15 00:48 | 60.46056 | 77.99490 | 20142 ft | 336 kts | 325° |
| 2026-04-15 00:48 | 60.48036 | 77.96848 | 19675 ft | 342 kts | 325° |
| 2026-04-15 00:48 | 60.50018 | 77.94203 | 19229 ft | 339 kts | 325° |
| 2026-04-15 00:49 | 60.51982 | 77.91579 | 18759 ft | 336 kts | 325° |
| 2026-04-15 00:49 | 60.53926 | 77.88977 | 18285 ft | 333 kts | 325° |
| 2026-04-15 00:49 | 60.55850 | 77.86398 | 17779 ft | 330 kts | 325° |
| 2026-04-15 00:49 | 60.57748 | 77.83849 | 17333 ft | 325 kts | 325° |
| 2026-04-15 00:50 | 60.59626 | 77.81324 | 16885 ft | 321 kts | 325° |
| 2026-04-15 00:50 | 60.61479 | 77.78830 | 16447 ft | 318 kts | 325° |
| 2026-04-15 00:50 | 60.63315 | 77.76356 | 16008 ft | 315 kts | 326° |
| 2026-04-15 00:50 | 60.65133 | 77.73902 | 15577 ft | 312 kts | 326° |
| 2026-04-15 00:51 | 60.66934 | 77.71464 | 15159 ft | 309 kts | 325° |
| 2026-04-15 00:51 | 60.68689 | 77.69080 | 14746 ft | 306 kts | 324° |
| 2026-04-15 00:51 | 60.70285 | 77.66245 | 14328 ft | 304 kts | 312° |
| 2026-04-15 00:51 | 60.71564 | 77.62818 | 13844 ft | 304 kts | 303° |
| 2026-04-15 00:52 | 60.72503 | 77.58944 | 13406 ft | 303 kts | 295° |
| 2026-04-15 00:52 | 60.73292 | 77.54972 | 13010 ft | 300 kts | 294° |
| 2026-04-15 00:52 | 60.74053 | 77.51038 | 12641 ft | 296 kts | 294° |
| 2026-04-15 00:52 | 60.74806 | 77.47149 | 12279 ft | 292 kts | 294° |
| 2026-04-15 00:53 | 60.75558 | 77.43296 | 11912 ft | 293 kts | 294° |
| 2026-04-15 00:53 | 60.76320 | 77.39413 | 11514 ft | 295 kts | 294° |
| 2026-04-15 00:53 | 60.77096 | 77.35472 | 11113 ft | 301 kts | 294° |
| 2026-04-15 00:53 | 60.77883 | 77.31478 | 10785 ft | 301 kts | 294° |
| 2026-04-15 00:54 | 60.78639 | 77.27630 | 10668 ft | 289 kts | 294° |
| 2026-04-15 00:54 | 60.79374 | 77.23886 | 10523 ft | 278 kts | 294° |
| 2026-04-15 00:54 | 60.80084 | 77.20268 | 10416 ft | 268 kts | 294° |
| 2026-04-15 00:54 | 60.80766 | 77.16787 | 10312 ft | 258 kts | 294° |
| 2026-04-15 00:55 | 60.81422 | 77.13429 | 10200 ft | 249 kts | 294° |
| 2026-04-15 00:55 | 60.82053 | 77.10189 | 10081 ft | 241 kts | 294° |
| 2026-04-15 00:55 | 60.82671 | 77.07004 | 9827 ft | 238 kts | 294° |
| 2026-04-15 00:55 | 60.83185 | 77.03794 | 9559 ft | 239 kts | 278° |
| 2026-04-15 00:56 | 60.83014 | 77.00399 | 9358 ft | 241 kts | 262° |
| 2026-04-15 00:56 | 60.82577 | 76.97085 | 9087 ft | 241 kts | 258° |
| 2026-04-15 00:56 | 60.82099 | 76.93801 | 8832 ft | 241 kts | 258° |
| 2026-04-15 00:56 | 60.81619 | 76.90517 | 8586 ft | 246 kts | 258° |
| 2026-04-15 00:57 | 60.81125 | 76.87109 | 8303 ft | 252 kts | 258° |
| 2026-04-15 00:57 | 60.80624 | 76.83623 | 8042 ft | 256 kts | 258° |
| 2026-04-15 00:57 | 60.80122 | 76.80122 | 7760 ft | 254 kts | 258° |
| 2026-04-15 00:57 | 60.79627 | 76.76662 | 7497 ft | 252 kts | 258° |
| 2026-04-15 00:58 | 60.79135 | 76.73220 | 7243 ft | 250 kts | 258° |
| 2026-04-15 00:58 | 60.78650 | 76.69817 | 6972 ft | 248 kts | 258° |
| 2026-04-15 00:58 | 60.78169 | 76.66441 | 6713 ft | 246 kts | 258° |
| 2026-04-15 00:58 | 60.77692 | 76.63092 | 6468 ft | 244 kts | 258° |
| 2026-04-15 00:59 | 60.77224 | 76.59808 | 6208 ft | 242 kts | 258° |
| 2026-04-15 00:59 | 60.76749 | 76.56477 | 5949 ft | 240 kts | 258° |
| 2026-04-15 00:59 | 60.76290 | 76.53257 | 5734 ft | 237 kts | 258° |
| 2026-04-15 00:59 | 60.75825 | 76.50000 | 5397 ft | 239 kts | 258° |
| 2026-04-15 01:00 | 60.75357 | 76.46748 | 5137 ft | 238 kts | 258° |
| 2026-04-15 01:00 | 60.74889 | 76.43512 | 4892 ft | 237 kts | 258° |
| 2026-04-15 01:00 | 60.74423 | 76.40300 | 4668 ft | 235 kts | 258° |
| 2026-04-15 01:00 | 60.74099 | 76.37045 | 4410 ft | 232 kts | 279° |
| 2026-04-15 01:01 | 60.74482 | 76.34006 | 4260 ft | 215 kts | 295° |
| 2026-04-15 01:01 | 60.74981 | 76.31190 | 4051 ft | 205 kts | 295° |
| 2026-04-15 01:01 | 60.75447 | 76.28534 | 3941 ft | 192 kts | 295° |
| 2026-04-15 01:01 | 60.75880 | 76.26056 | 3861 ft | 179 kts | 295° |
| 2026-04-15 01:02 | 60.76294 | 76.23690 | 3788 ft | 175 kts | 296° |
| 2026-04-15 01:02 | 60.76833 | 76.21612 | 3691 ft | 157 kts | 321° |
| 2026-04-15 01:02 | 60.77701 | 76.20356 | 3639 ft | 153 kts | 338° |
| 2026-04-15 01:02 | 60.78706 | 76.19962 | 3579 ft | 148 kts | 3° |
| 2026-04-15 01:03 | 60.79649 | 76.20793 | 3462 ft | 151 kts | 28° |
| 2026-04-15 01:03 | 60.80527 | 76.22003 | 3246 ft | 152 kts | 30° |
| 2026-04-15 01:03 | 60.81392 | 76.23212 | 3072 ft | 150 kts | 29° |
| 2026-04-15 01:03 | 60.82214 | 76.24522 | 2901 ft | 150 kts | 34° |
| 2026-04-15 01:04 | 60.82999 | 76.25941 | 2725 ft | 151 kts | 36° |
| 2026-04-15 01:04 | 60.83776 | 76.27386 | 2544 ft | 151 kts | 36° |
| 2026-04-15 01:04 | 60.84546 | 76.28825 | 2380 ft | 149 kts | 36° |
| 2026-04-15 01:04 | 60.85310 | 76.30251 | 2191 ft | 150 kts | 36° |
| 2026-04-15 01:05 | 60.86080 | 76.31689 | 2014 ft | 150 kts | 36° |
| 2026-04-15 01:05 | 60.86847 | 76.33120 | 1847 ft | 145 kts | 35° |
| 2026-04-15 01:05 | 60.87551 | 76.34439 | 1687 ft | 129 kts | 34° |
| 2026-04-15 01:05 | 60.88199 | 76.35643 | 1539 ft | 124 kts | 33° |
| 2026-04-15 01:06 | 60.88856 | 76.36862 | 1373 ft | 128 kts | 34° |
| 2026-04-15 01:06 | 60.89514 | 76.38093 | 1222 ft | 128 kts | 34° |
| 2026-04-15 01:06 | 60.90165 | 76.39307 | 1076 ft | 128 kts | 35° |
| 2026-04-15 01:06 | 60.90840 | 76.40546 | 889 ft | 132 kts | 34° |
| 2026-04-15 01:07 | 60.91513 | 76.41813 | 733 ft | 131 kts | 38° |
| 2026-04-15 01:07 | 60.92190 | 76.43118 | 589 ft | 135 kts | 37° |
| 2026-04-15 01:07 | 60.92889 | 76.44396 | 451 ft | 135 kts | 36° |
| 2026-04-15 01:07 | 60.93587 | 76.45701 | 300 ft | 136 kts | 39° |
| 2026-04-15 01:08 | 60.94287 | 76.47005 | 194 ft | 130 kts | 38° |
| 2026-04-15 01:08 | 60.94866 | 76.48072 | 185 ft | 90 kts | 42° |
| 2026-04-15 01:08 | 60.95237 | 76.48767 | 192 ft | 63 kts | 41° |
| 2026-04-15 01:08 | 60.95362 | 76.49031 | 193 ft | 13 kts | 78° |
| 2026-04-15 01:09 | 60.95314 | 76.49183 | 186 ft | 13 kts | 132° |
| 2026-04-15 01:09 | 60.95293 | 76.49232 | 185 ft | 0 kts | 131° |
| 2026-04-15 01:10 | 60.95287 | 76.49245 | 188 ft | 3 kts | 133° |
| 2026-04-15 01:10 | 60.95251 | 76.49260 | 190 ft | 8 kts | 202° |
| 2026-04-15 01:11 | 60.95195 | 76.49164 | 185 ft | 13 kts | 222° |
| 2026-04-15 01:11 | 60.95140 | 76.49067 | 188 ft | 4 kts | 205° |
| 2026-04-15 01:11 | 60.95122 | 76.49084 | 193 ft | 4 kts | 121° |
| 2026-04-15 01:11 | 60.95099 | 76.49139 | 189 ft | 0 kts | 132° |
| 2026-04-15 01:12 | 60.95096 | 76.49148 | 185 ft | 1 kts | 132° |
| 2026-04-15 01:12 | 60.95095 | 76.49148 | 185 ft | 0 kts | 132° |